Portada
METAR-TAF:

METAR-TAF

Aeroports :

Bournemouth, Anglaterra

latitud: 50-47N, longitud: 001-50W, altitud: 11 m

Observació

L'informe es va fer fa 40 minuts, a les 16:50 UTC
Vent 8 kt del Nord-Oest, variant entre Oest/Nord-Oest i Nord-Est
Temperatura 25°C
Humitat 32%
Pressió 1015 hPa
Visibilitat 10 km o més
sense núvols per sota de 1500 mi sense presència de cumulonimbus.

METAR: EGHH 021650Z 32008KT 300V050 CAVOK 25/07 Q1015

Hora: 18:30 (17:30 UTC)

Pronòstic

L'informe es va fer fa 3 hores i 35 minuts, a les 13:55 UTC
Pronòstic vàlid del 02 a les 15 UTC al 02 a les 17 UTC
Vent 7 kt del Nord
Visibilitat 10 km o més
sense núvols per sota de 1500 mi sense presència de cumulonimbus.

TAF: EGHH 021355Z 0215/0217 36007KT CAVOK

Observacions i pronòstics meteorològics de més de 4000 aeroports (METAR i TAF).

Les estacions disponibles són els punts grocs i vermells al mapa.

Posi el ratolí al punt desitjat per veure el nom de l'estació.

Feu clic per veure les observacions i els pronòstics meteorològics.

Per canviar el mapa: feu clic els botons verds amb una creu de color negre per apropar; al botó verd amb un guió per allunyar la imatge; o en les fletxes verdes per a mapes adjacents.


METAR-TAF: